Lomas de Country Club, Puerto Rico
Current Conditions -  °F | °C
As of 6:50 PM on Friday 19 Dec 2014 (Local Time) from TJBQ Reporting Station
Clear Clear  
Wind Chill: 75°   Ceiling: Unl
Heat Index: 75°   Visibility: 10mi
Dew Point: 68°   Wind: 9mph
Humidity: 78%   Direction: 90°E
Pressure: 29.99"   Gusts: NA
Location:  18.0152°N, 66.6246°W
Report Text: TJBQ 192250Z 09008KT 10SM SKC 24/20 A2999 RMK RWY08 ATIS U
Loading
Personal Weather Stations






























Interactive Weather Map New forecast layout! Learn more

10-Day Weather Forecast

Advertisements
Track Severe Weather on mobile